»·PEaware :: SAS226 KSAN-KLAS

SAS226 :: KSAN-KLAS

FLIGHT INFORMATION

Flight Status: Arrived
Operator:
SAS
More flights by this operator :: More flights under this callsign
Pilot: Anonymous 9219 (9219)
Aircraft: MCDONNELL-DOUGLAS MD-88
(MD88)
More flights by this aircraft type
Origin: KSAN San Diego Intl-Lindbergh
United States
Destination: KLAS McCarran Intl
United States
More flights between these airports :: More routes between these airports
Route: +PEBLE6 SXC LAX DAG KEPEC3
File this flight plan on PilotEdge
Remarks: RMK / LIVE STREAM TWITCH.TV / GIANTUNICORN
Altitude:
(Current/Filed)
28,000ft
Speed:
(Current/Filed)
440kts
Departed: 11-Dec-15 05:29 PM
Arrived: 11-Dec-15 06:30 PM
Distance/Time
Traveled:
225nm/1:01
Distance/Time
To Go:
Arrived

Flight Plot

Page will automatically refresh every two minutes.


Map Options




Map Legend


Flown Route
Filed Route
Departure Airport
Arrival Airport
Navaid (VOR, NDB)
Fix

Horizontal Profiles

Position Reports

Time Latitude Longitude Heading Altitude Ground
Speed
11-Dec-15 16:51 32.734209 -117.204803 112 23ft 0kts
11-Dec-15 16:52 32.734209 -117.204803 112 23ft 0kts
11-Dec-15 16:53 32.734209 -117.204803 112 23ft 0kts
11-Dec-15 16:54 32.734209 -117.204803 112 23ft 0kts
11-Dec-15 16:55 32.734209 -117.204803 112 23ft 0kts
11-Dec-15 16:56 32.734209 -117.204803 112 23ft 0kts
11-Dec-15 16:57 32.734209 -117.204803 112 23ft 0kts
11-Dec-15 16:58 32.734209 -117.204803 112 23ft 0kts
11-Dec-15 16:59 32.734209 -117.204803 112 23ft 0kts
11-Dec-15 17:00 32.734209 -117.204803 112 23ft 0kts
11-Dec-15 17:01 32.734209 -117.204803 112 23ft 0kts
11-Dec-15 17:02 32.734209 -117.204803 112 23ft 0kts
11-Dec-15 17:03 32.734209 -117.204803 112 23ft 0kts
11-Dec-15 17:04 32.734209 -117.204803 112 23ft 0kts
11-Dec-15 17:05 32.734209 -117.204803 112 23ft 0kts
11-Dec-15 17:06 32.734209 -117.204803 112 23ft 0kts
11-Dec-15 17:07 32.734209 -117.204803 112 23ft 0kts
11-Dec-15 17:08 32.734209 -117.204803 112 23ft 0kts
11-Dec-15 17:09 32.734209 -117.204803 112 23ft 0kts
11-Dec-15 17:10 32.734209 -117.204803 112 23ft 0kts
11-Dec-15 17:11 32.734209 -117.204803 112 23ft 0kts
11-Dec-15 17:12 32.734209 -117.204803 112 23ft 0kts
11-Dec-15 17:13 32.734307 -117.205088 111 23ft 1kts
11-Dec-15 17:14 32.734505 -117.205675 111 23ft 1kts
11-Dec-15 17:15 32.734570 -117.205863 112 23ft 0kts
11-Dec-15 17:16 32.734603 -117.205696 54 23ft 3kts
11-Dec-15 17:17 32.735337 -117.204733 47 23ft 3kts
11-Dec-15 17:18 32.735511 -117.202039 106 23ft 13kts
11-Dec-15 17:19 32.734133 -117.196607 103 23ft 25kts
11-Dec-15 17:20 32.732391 -117.189173 105 23ft 20kts
11-Dec-15 17:21 32.731188 -117.184114 105 23ft 26kts
11-Dec-15 17:22 32.729614 -117.177673 106 23ft 12kts
11-Dec-15 17:23 32.729514 -117.176706 69 23ft 0kts
11-Dec-15 17:24 32.729514 -117.176706 69 23ft 0kts
11-Dec-15 17:25 32.730121 -117.175904 327 23ft 9kts
11-Dec-15 17:26 32.737060 -117.200911 288 599ft 169kts
11-Dec-15 17:27 32.778806 -117.249003 309 2025ft 230kts
11-Dec-15 17:28 32.816707 -117.302218 306 3670ft 196kts
11-Dec-15 17:29 32.849462 -117.349073 307 4618ft 189kts
11-Dec-15 17:30 32.887618 -117.403733 307 4967ft 248kts
11-Dec-15 17:31 32.931402 -117.466467 308 4964ft 248kts
11-Dec-15 17:32 32.975140 -117.529277 308 4967ft 245kts
11-Dec-15 17:33 33.019538 -117.593174 309 7951ft 253kts
11-Dec-15 17:34 33.065530 -117.659439 309 10125ft 297kts
11-Dec-15 17:35 33.120528 -117.741714 308 12432ft 329kts
11-Dec-15 17:36 33.177206 -117.828776 309 14847ft 337kts
11-Dec-15 17:37 33.213864 -117.932158 294 15962ft 345kts
11-Dec-15 17:38 33.249163 -118.038602 295 18582ft 350kts
11-Dec-15 17:39 33.285361 -118.147363 294 20868ft 360kts
11-Dec-15 17:40 33.322464 -118.259650 294 22876ft 366kts
11-Dec-15 17:41 33.359874 -118.373207 297 23702ft 368kts
11-Dec-15 17:42 33.444751 -118.400068 30 25117ft 357kts
11-Dec-15 17:43 33.502748 -118.300521 49 25649ft 373kts
11-Dec-15 17:44 33.558034 -118.197263 49 26124ft 373kts
11-Dec-15 17:45 33.602507 -118.113977 49 26553ft 373kts
11-Dec-15 17:46 33.657774 -118.011615 49 27076ft 382kts
11-Dec-15 17:47 33.718553 -117.911140 25 27599ft 371kts
11-Dec-15 17:48 33.805020 -117.860318 18 27827ft 367kts
11-Dec-15 17:49 33.895016 -117.808542 18 27828ft 366kts
11-Dec-15 17:50 33.972902 -117.730072 49 27834ft 389kts
11-Dec-15 17:51 34.033517 -117.623444 49 27815ft 388kts
11-Dec-15 17:52 34.097550 -117.522377 22 27830ft 368kts
11-Dec-15 17:53 34.165889 -117.425011 49 27833ft 416kts
11-Dec-15 17:54 34.242305 -117.309982 43 27841ft 468kts
11-Dec-15 17:55 34.326768 -117.194435 43 27819ft 469kts
11-Dec-15 17:56 34.413036 -117.078215 43 27802ft 467kts
11-Dec-15 17:57 34.499969 -116.961173 43 27791ft 477kts
11-Dec-15 17:58 34.585696 -116.846024 43 27774ft 486kts
11-Dec-15 17:59 34.675399 -116.728050 43 27774ft 487kts
11-Dec-15 18:00 34.782791 -116.634083 16 27786ft 472kts
11-Dec-15 18:01 34.906632 -116.584192 10 27776ft 468kts
11-Dec-15 18:02 35.020903 -116.513065 44 26025ft 464kts
11-Dec-15 18:03 35.104289 -116.401428 42 23799ft 426kts
11-Dec-15 18:04 35.187496 -116.297224 42 23725ft 431kts
11-Dec-15 18:05 35.271087 -116.192243 42 23558ft 433kts
11-Dec-15 18:06 35.353142 -116.088862 42 21609ft 414kts
11-Dec-15 18:07 35.432021 -115.989191 42 19648ft 401kts
11-Dec-15 18:08 35.505139 -115.896542 42 17701ft 388kts
11-Dec-15 18:09 35.577058 -115.805636 43 15717ft 375kts
11-Dec-15 18:10 35.646358 -115.717337 44 13793ft 362kts
11-Dec-15 18:11 35.712860 -115.632343 45 12990ft 355kts
11-Dec-15 18:12 35.783535 -115.566815 40 13012ft 295kts
11-Dec-15 18:13 35.829296 -115.470991 61 12128ft 326kts
11-Dec-15 18:14 35.867383 -115.380765 61 10554ft 274kts
11-Dec-15 18:15 35.901158 -115.298748 61 9060ft 266kts
11-Dec-15 18:16 35.935738 -115.240365 24 7560ft 241kts
11-Dec-15 18:17 35.988923 -115.214566 19 6211ft 195kts
11-Dec-15 18:18 36.038996 -115.190652 21 4197ft 191kts
11-Dec-15 18:19 36.093792 -115.159343 25 2359ft 167kts
11-Dec-15 18:20 36.129282 -115.135923 26 3339ft 177kts
11-Dec-15 18:21 36.148816 -115.090118 123 4042ft 195kts
11-Dec-15 18:22 36.099486 -115.086086 196 4024ft 196kts
11-Dec-15 18:23 36.047549 -115.103993 196 4034ft 172kts
11-Dec-15 18:24 36.017683 -115.135919 284 3521ft 151kts
11-Dec-15 18:25 36.040451 -115.174848 345 3267ft 140kts
11-Dec-15 18:26 36.079118 -115.168144 24 2155ft 139kts
11-Dec-15 18:27 36.096477 -115.158237 23 2147ft 26kts
11-Dec-15 18:28 36.098944 -115.154972 114 2147ft 6kts
11-Dec-15 18:29 36.097428 -115.152034 193 2147ft 13kts
11-Dec-15 18:30 36.092617 -115.154781 203 2147ft 13kts

Navigation Log

Ident Type
1. KSAN Airport
2. MELDY Fix
3. PEBLE Fix
4. SXC Navaid
5. LAX Navaid
6. DAG Navaid
7. MISEN Fix
8. CLARR Fix
9. SKEBR Fix
10. KEPEC Fix
11. IPUMY Fix
12. NIPZO Fix
13. SUNST Fix
14. KIMME Fix
15. CHIPZ Fix
16. POKRR Fix
17. PRINO Fix
18. KLAS Airport